Time;durP1;ratioP1;P1;durP2;ratioP2;P2;SDS_P1;SDS_P2;PMS_P1;PMS_P2;Temp;Humidity;BMP_temperature;BMP_pressure;BME280_temperature;BME280_humidity;BME280_pressure;Samples;Min_cycle;Max_cycle;Signal;HPM_P1;HPM_P2
2021/10/02 00:36:36;;;;;;;16.38;12.38;;;18.20;95.10;;;;;;5055225;28;20045;-74
2021/10/02 00:44:38;;;;;;;13.27;11.98;;;18.20;95.80;;;;;;5054889;28;20507;-74
2021/10/02 00:47:08;;;;;;;14.18;12.68;;;18.20;95.80;;;;;;5055277;28;20377;-73
2021/10/02 00:49:36;;;;;;;16.40;14.75;;;18.10;95.80;;;;;;5055098;28;20045;-73
2021/10/02 00:52:06;;;;;;;17.13;13.50;;;18.10;95.90;;;;;;5054389;28;20060;-74
2021/10/02 00:54:32;;;;;;;15.88;13.05;;;18.10;96.00;;;;;;5054805;28;20037;-74
2021/10/02 00:57:00;;;;;;;15.18;13.57;;;18.10;96.00;;;;;;5054483;28;20049;-74
2021/10/02 00:59:31;;;;;;;17.77;13.23;;;18.10;96.20;;;;;;5055451;28;20036;-74
2021/10/02 01:02:04;;;;;;;18.52;12.90;;;18.10;96.20;;;;;;5054788;28;20041;-67
2021/10/02 01:04:41;;;;;;;15.75;13.05;;;18.10;96.00;;;;;;5054451;28;20056;-73
2021/10/02 01:07:32;;;;;;;14.73;13.10;;;18.10;95.30;;;;;;5055208;28;20045;-73
2021/10/02 01:10:05;;;;;;;;;;;18.10;94.50;;;;;;5037141;28;20037;-70
2021/10/02 01:12:34;;;;;;;17.73;13.45;;;18.10;94.00;;;;;;5054929;28;20388;-75
2021/10/02 01:15:09;;;;;;;16.58;14.88;;;18.10;93.80;;;;;;5054326;28;20060;-73
2021/10/02 01:17:53;;;;;;;15.68;12.98;;;18.10;93.60;;;;;;5054860;28;20048;-75
2021/10/02 01:21:01;;;;;;;17.58;13.52;;;18.10;93.70;;;;;;5054139;28;20389;-76
2021/10/02 01:23:54;;;;;;;19.15;13.02;;;18.10;93.60;;;;;;5053721;28;20052;-74
2021/10/02 01:26:44;;;;;;;18.10;14.52;;;18.10;93.60;;;;;;5054938;28;20464;-75
2021/10/02 01:29:12;;;;;;;15.37;12.77;;;18.10;93.70;;;;;;5053784;28;20151;-74
2021/10/02 01:31:53;;;;;;;16.33;14.40;;;18.10;93.60;;;;;;5053579;28;20048;-75
2021/10/02 01:34:43;;;;;;;;;;;18.00;93.70;;;;;;5054208;28;20483;-76
2021/10/02 01:48:00;;;;;;;18.33;15.02;;;18.00;93.90;;;;;;5054237;28;20041;-75
2021/10/02 01:50:29;;;;;;;23.75;16.52;;;18.00;93.90;;;;;;5054380;28;20477;-76
2021/10/02 01:53:02;;;;;;;18.30;15.85;;;18.00;93.90;;;;;;5053608;28;20432;-75
2021/10/02 01:55:30;;;;;;;20.15;16.45;;;18.00;93.90;;;;;;5053794;28;20367;-75
2021/10/02 01:58:01;;;;;;;20.23;16.25;;;18.00;94.00;;;;;;5053447;28;20056;-74
2021/10/02 02:00:29;;;;;;;18.23;16.17;;;18.00;94.00;;;;;;5053627;28;20060;-75
2021/10/02 02:03:01;;;;;;;21.73;16.48;;;18.00;94.00;;;;;;5053428;28;20056;-74
2021/10/02 02:05:30;;;;;;;20.63;16.55;;;18.00;94.00;;;;;;5053357;28;20049;-76
2021/10/02 02:08:07;;;;;;;19.42;17.08;;;18.00;94.20;;;;;;5053417;28;20048;-76
2021/10/02 02:10:37;;;;;;;21.25;16.88;;;18.00;94.10;;;;;;5053599;28;20052;-75
2021/10/02 02:13:04;;;;;;;19.33;17.30;;;18.00;94.00;;;;;;5052959;28;20488;-75
2021/10/02 02:15:32;;;;;;;21.63;15.85;;;18.00;94.00;;;;;;5052625;28;20500;-75
2021/10/02 02:18:06;;;;;;;18.83;16.35;;;18.00;94.00;;;;;;5053101;28;20056;-75
2021/10/02 02:20:36;;;;;;;20.90;17.15;;;18.00;93.90;;;;;;5053546;28;20374;-75
2021/10/02 02:23:04;;;;;;;21.35;15.80;;;18.00;93.90;;;;;;5052875;28;20056;-74
2021/10/02 02:25:31;;;;;;;20.58;17.25;;;18.00;93.90;;;;;;5053047;28;20500;-75
2021/10/02 02:27:58;;;;;;;19.02;16.65;;;18.00;94.00;;;;;;5052878;28;20045;-75
2021/10/02 02:30:25;;;;;;;19.65;17.55;;;17.90;93.80;;;;;;5053231;28;20047;-75
2021/10/02 02:32:52;;;;;;;22.17;17.23;;;18.00;93.90;;;;;;5052318;28;20520;-74
2021/10/02 02:35:21;;;;;;;24.95;15.80;;;17.90;93.80;;;;;;5053118;28;20048;-75
2021/10/02 02:37:48;;;;;;;18.08;16.15;;;17.90;93.80;;;;;;5052575;28;20053;-75
2021/10/02 02:40:14;;;;;;;19.35;17.20;;;17.90;93.80;;;;;;5052682;28;20045;-74
2021/10/02 02:42:42;;;;;;;23.60;16.30;;;17.90;93.80;;;;;;5052132;28;20044;-73
2021/10/02 02:45:11;;;;;;;17.75;15.55;;;17.90;93.80;;;;;;5052898;28;20041;-73
2021/10/02 02:47:43;;;;;;;19.92;17.15;;;17.90;93.90;;;;;;5052430;28;20037;-73
2021/10/02 02:50:19;;;;;;;18.65;16.42;;;17.90;93.90;;;;;;5052010;28;20385;-74
2021/10/02 02:53:22;;;;;;;19.08;16.92;;;17.90;93.80;;;;;;5053052;28;20049;-74
2021/10/02 02:55:54;;;;;;;20.10;16.15;;;17.90;94.00;;;;;;5050886;28;20477;-75
2021/10/02 02:58:24;;;;;;;18.08;16.25;;;17.90;94.00;;;;;;5052022;28;20064;-75
2021/10/02 03:00:56;;;;;;;21.80;17.60;;;17.90;94.10;;;;;;5053642;28;20037;-75
2021/10/02 03:03:28;;;;;;;21.50;18.70;;;17.90;94.20;;;;;;5072019;28;20507;-75
2021/10/02 03:05:59;;;;;;;21.08;17.10;;;17.90;94.30;;;;;;5072586;28;20024;-75
2021/10/02 03:08:31;;;;;;;20.05;17.50;;;17.90;94.50;;;;;;5071750;28;20584;-75
2021/10/02 03:11:01;;;;;;;19.73;16.33;;;17.90;94.60;;;;;;5072237;28;20420;-74
2021/10/02 03:13:30;;;;;;;19.77;17.67;;;17.90;94.60;;;;;;5072450;28;20437;-76
2021/10/02 03:15:57;;;;;;;23.63;19.60;;;17.90;94.80;;;;;;5052888;28;20055;-75
2021/10/02 03:18:26;;;;;;;21.23;17.92;;;17.80;94.80;;;;;;5052936;28;20051;-74
2021/10/02 03:20:57;;;;;;;20.75;18.05;;;17.80;95.00;;;;;;5051885;28;20052;-74
2021/10/02 03:23:26;;;;;;;24.13;19.27;;;17.80;95.20;;;;;;5052351;28;20044;-74
2021/10/02 03:25:54;;;;;;;23.60;18.60;;;17.80;95.30;;;;;;5052050;28;20045;-75
2021/10/02 03:28:21;;;;;;;22.02;19.80;;;17.80;95.40;;;;;;5052112;28;20473;-76
2021/10/02 03:30:49;;;;;;;25.92;19.23;;;17.80;95.60;;;;;;5052056;28;20052;-75
2021/10/02 03:33:16;;;;;;;22.55;19.33;;;17.80;95.80;;;;;;5052097;28;20377;-75
2021/10/02 03:35:43;;;;;;;23.02;20.58;;;17.70;96.00;;;;;;5051131;28;20488;-74
2021/10/02 03:38:09;;;;;;;25.40;22.15;;;17.80;95.90;;;;;;5052026;28;20048;-74
2021/10/02 03:40:36;;;;;;;26.42;21.73;;;17.80;95.90;;;;;;5051615;28;20056;-75
2021/10/02 03:43:02;;;;;;;26.75;21.20;;;17.80;96.00;;;;;;5051955;28;20052;-75
2021/10/02 03:45:30;;;;;;;24.33;21.80;;;17.70;95.90;;;;;;5052041;28;20045;-74
2021/10/02 03:47:57;;;;;;;23.98;21.17;;;17.80;95.90;;;;;;5052053;28;20052;-74
2021/10/02 03:50:24;;;;;;;21.63;19.50;;;17.70;96.00;;;;;;5051576;28;20052;-74
2021/10/02 03:52:50;;;;;;;23.48;20.95;;;17.70;96.10;;;;;;5051867;28;20048;-74
2021/10/02 03:55:17;;;;;;;25.65;20.70;;;17.70;96.10;;;;;;5052000;28;20147;-74
2021/10/02 03:57:43;;;;;;;28.88;20.88;;;17.70;96.20;;;;;;5051737;28;20048;-74
2021/10/02 04:00:10;;;;;;;24.10;21.52;;;17.70;96.30;;;;;;5051884;28;20053;-70
2021/10/02 04:02:38;;;;;;;26.15;21.48;;;17.60;96.30;;;;;;5051907;28;20048;-74
2021/10/02 04:05:05;;;;;;;25.08;21.45;;;17.70;96.30;;;;;;5051771;28;20040;-75
2021/10/02 04:07:32;;;;;;;24.95;22.30;;;17.70;96.30;;;;;;5051031;28;20056;-75
2021/10/02 04:09:58;;;;;;;24.90;22.20;;;17.60;96.20;;;;;;5051835;28;20052;-76
2021/10/02 04:12:25;;;;;;;23.20;20.25;;;17.60;96.30;;;;;;5051656;28;20049;-76
2021/10/02 04:14:51;;;;;;;30.88;22.33;;;17.60;96.30;;;;;;5062448;28;20049;-74
2021/10/02 04:17:18;;;;;;;30.38;21.83;;;17.60;96.30;;;;;;5071397;28;20041;-75
2021/10/02 04:19:44;;;;;;;24.65;22.08;;;17.60;96.30;;;;;;5071504;28;20052;-75
2021/10/02 04:22:12;;;;;;;24.85;21.75;;;17.60;96.30;;;;;;5070703;28;20049;-64
2021/10/02 04:24:40;;;;;;;26.58;23.38;;;17.60;96.40;;;;;;5072661;28;20483;-76
2021/10/02 04:27:08;;;;;;;27.55;21.92;;;17.60;96.30;;;;;;5071686;28;20052;-75
2021/10/02 04:29:35;;;;;;;22.15;19.88;;;17.60;96.40;;;;;;5071547;28;20044;-76
2021/10/02 04:32:02;;;;;;;24.30;21.63;;;17.60;96.40;;;;;;5070902;28;20388;-75
2021/10/02 04:34:28;;;;;;;22.70;20.30;;;17.50;96.50;;;;;;5071371;28;20049;-74
2021/10/02 04:36:55;;;;;;;22.38;19.35;;;17.50;96.50;;;;;;5071525;28;20049;-74
2021/10/02 04:39:21;;;;;;;21.98;19.77;;;17.50;96.60;;;;;;5072177;28;20036;-75
2021/10/02 04:41:48;;;;;;;22.75;19.98;;;17.50;96.50;;;;;;5072082;28;20052;-76
2021/10/02 04:44:14;;;;;;;23.88;21.35;;;17.50;96.40;;;;;;5071124;28;20059;-75
2021/10/02 04:46:41;;;;;;;24.25;21.75;;;17.50;96.50;;;;;;5072990;28;20036;-73
2021/10/02 04:49:09;;;;;;;24.65;22.15;;;17.50;96.50;;;;;;5073145;28;20049;-72
2021/10/02 04:51:37;;;;;;;24.98;22.30;;;17.50;96.50;;;;;;5074070;28;20047;-76
2021/10/02 04:54:04;;;;;;;20.98;18.70;;;17.40;96.40;;;;;;5074656;28;20063;-75
2021/10/02 04:56:31;;;;;;;23.23;20.75;;;17.50;96.50;;;;;;5075171;28;20055;-76
2021/10/02 04:58:57;;;;;;;20.38;18.30;;;17.50;96.40;;;;;;5074564;28;20040;-74
2021/10/02 05:01:24;;;;;;;19.95;17.75;;;17.50;96.30;;;;;;5074840;28;20040;-75
2021/10/02 05:03:51;;;;;;;23.15;18.88;;;17.40;96.30;;;;;;5074369;28;20056;-74
2021/10/02 05:06:17;;;;;;;27.50;18.20;;;17.40;96.20;;;;;;5074554;28;20476;-76
2021/10/02 05:08:45;;;;;;;19.85;17.80;;;17.40;96.30;;;;;;5075128;28;20115;-75
2021/10/02 05:11:12;;;;;;;19.65;17.45;;;17.40;96.10;;;;;;5074754;28;20041;-75
2021/10/02 05:13:38;;;;;;;19.27;17.35;;;17.40;96.10;;;;;;5073727;28;20056;-75
2021/10/02 05:16:05;;;;;;;21.58;17.60;;;17.40;96.00;;;;;;5074830;28;20508;-74
2021/10/02 05:18:32;;;;;;;19.35;15.77;;;17.40;95.60;;;;;;5074482;28;20052;-75
2021/10/02 05:20:58;;;;;;;18.73;16.48;;;17.40;95.40;;;;;;5056804;28;20044;-76
2021/10/02 05:23:25;;;;;;;20.27;16.80;;;17.40;95.20;;;;;;5074183;28;20044;-75
2021/10/02 05:25:54;;;;;;;21.42;17.05;;;17.40;95.10;;;;;;5074799;28;20472;-76
2021/10/02 05:28:21;;;;;;;20.80;16.48;;;17.40;95.00;;;;;;5074143;28;20071;-75
2021/10/02 05:30:48;;;;;;;19.45;16.20;;;17.30;94.70;;;;;;5073981;28;20040;-75
2021/10/02 05:33:15;;;;;;;21.05;15.35;;;17.40;94.60;;;;;;5074005;28;20055;-75
2021/10/02 05:35:41;;;;;;;19.05;16.02;;;17.40;94.50;;;;;;5073941;28;20049;-75
2021/10/02 05:38:08;;;;;;;19.77;16.55;;;17.30;94.10;;;;;;5073403;28;20036;-74
2021/10/02 05:40:34;;;;;;;19.60;16.42;;;17.40;94.10;;;;;;5065027;28;20036;-74
2021/10/02 05:43:02;;;;;;;19.13;15.45;;;17.40;93.70;;;;;;5069471;28;20040;-75
2021/10/02 05:45:30;;;;;;;18.15;15.65;;;17.40;93.50;;;;;;5070775;28;20391;-76
2021/10/02 05:47:57;;;;;;;21.27;15.85;;;17.30;93.40;;;;;;5066366;28;20029;-76
2021/10/02 05:50:24;;;;;;;19.67;16.00;;;17.30;93.40;;;;;;5067770;28;20037;-76
2021/10/02 05:52:51;;;;;;;21.30;16.67;;;17.30;93.50;;;;;;5067304;28;20048;-76
2021/10/02 05:55:17;;;;;;;20.73;18.17;;;17.40;93.70;;;;;;5068123;28;20033;-67
2021/10/02 05:57:44;;;;;;;19.98;16.52;;;17.40;93.80;;;;;;5072401;28;20051;-75
2021/10/02 06:00:11;;;;;;;21.88;16.98;;;17.40;93.50;;;;;;5073547;28;20060;-75
2021/10/02 06:02:40;;;;;;;16.80;15.02;;;17.40;93.40;;;;;;5071730;28;20056;-75
2021/10/02 06:05:07;;;;;;;20.60;16.55;;;17.40;93.40;;;;;;5072708;28;20427;-75
2021/10/02 06:07:33;;;;;;;17.48;15.13;;;17.40;93.40;;;;;;5073352;28;20357;-76
2021/10/02 06:10:00;;;;;;;23.60;16.33;;;17.40;93.10;;;;;;5073138;28;20488;-75
2021/10/02 06:12:26;;;;;;;21.25;16.65;;;17.40;93.30;;;;;;5073087;28;20052;-75
2021/10/02 06:14:52;;;;;;;23.95;16.73;;;17.40;93.20;;;;;;5055690;28;20052;-74
2021/10/02 06:17:19;;;;;;;17.85;15.93;;;17.40;93.20;;;;;;5073669;28;20043;-69
2021/10/02 06:19:45;;;;;;;24.42;16.95;;;17.40;92.90;;;;;;5074841;28;20044;-75
2021/10/02 06:22:12;;;;;;;16.95;14.85;;;17.40;93.00;;;;;;5079943;28;20052;-76
2021/10/02 06:24:38;;;;;;;17.88;14.27;;;17.40;92.80;;;;;;5075428;28;20048;-75
2021/10/02 06:27:05;;;;;;;18.05;15.15;;;17.40;92.50;;;;;;5072567;28;20041;-75
2021/10/02 06:29:31;;;;;;;16.63;14.52;;;17.40;92.80;;;;;;5072915;28;20051;-75
2021/10/02 06:31:58;;;;;;;17.52;14.52;;;17.40;92.70;;;;;;5072365;28;20045;-76
2021/10/02 06:34:24;;;;;;;17.75;14.18;;;17.40;92.50;;;;;;5072815;28;20361;-76
2021/10/02 06:36:51;;;;;;;15.27;13.32;;;17.40;92.40;;;;;;5072593;28;20071;-74
2021/10/02 06:39:17;;;;;;;21.80;13.18;;;17.40;92.30;;;;;;5072707;28;20045;-75
2021/10/02 06:41:43;;;;;;;15.57;13.00;;;17.50;91.90;;;;;;5072152;28;20048;-74
2021/10/02 06:44:11;;;;;;;16.23;12.50;;;17.40;91.10;;;;;;5054617;28;20063;-76
2021/10/02 06:46:37;;;;;;;14.77;12.52;;;17.40;91.00;;;;;;5072731;28;20051;-75
2021/10/02 06:49:04;;;;;;;16.70;13.20;;;17.40;91.00;;;;;;5072553;28;20043;-74
2021/10/02 06:51:30;;;;;;;17.27;12.73;;;17.40;91.00;;;;;;5072980;28;20047;-75
2021/10/02 06:53:57;;;;;;;15.27;12.55;;;17.40;91.10;;;;;;5072008;28;20052;-74
2021/10/02 06:56:24;;;;;;;23.38;14.50;;;17.50;91.20;;;;;;5071990;28;20037;-74
2021/10/02 06:58:50;;;;;;;17.08;14.75;;;17.50;91.50;;;;;;5072218;28;20048;-74
2021/10/02 07:01:17;;;;;;;20.90;14.52;;;17.50;91.30;;;;;;5072241;28;20392;-75
2021/10/02 07:03:43;;;;;;;18.58;14.05;;;17.50;91.20;;;;;;5071716;28;20043;-76
2021/10/02 07:06:09;;;;;;;20.55;13.75;;;17.50;91.20;;;;;;5072196;28;20048;-76
2021/10/02 07:08:36;;;;;;;15.02;13.32;;;17.50;91.30;;;;;;5071305;28;20040;-76
2021/10/02 07:11:03;;;;;;;19.85;14.43;;;17.50;91.30;;;;;;5071789;28;20103;-76
2021/10/02 07:13:29;;;;;;;14.90;12.77;;;17.50;91.30;;;;;;5071815;28;20044;-74
2021/10/02 07:15:55;;;;;;;17.08;13.30;;;17.60;91.50;;;;;;5071284;28;20045;-75
2021/10/02 07:18:23;;;;;;;16.98;13.02;;;17.60;91.40;;;;;;5071626;28;20036;-74
2021/10/02 07:20:49;;;;;;;18.50;13.63;;;17.60;91.40;;;;;;5072146;28;20052;-75
2021/10/02 07:23:19;;;;;;;19.85;14.70;;;17.60;91.30;;;;;;5072198;28;20503;-75
2021/10/02 07:25:47;;;;;;;17.35;14.10;;;17.60;91.20;;;;;;5072617;28;20047;-75
2021/10/02 07:28:14;;;;;;;20.30;14.23;;;17.60;91.10;;;;;;5071593;28;20071;-75
2021/10/02 07:30:40;;;;;;;17.52;15.63;;;17.60;91.00;;;;;;5070636;28;20055;-75
2021/10/02 07:33:07;;;;;;;21.92;17.45;;;17.60;90.80;;;;;;5071451;28;20045;-75
2021/10/02 07:35:34;;;;;;;20.60;16.88;;;17.60;90.60;;;;;;5071193;28;20055;-75
2021/10/02 07:38:00;;;;;;;24.75;17.73;;;17.60;90.50;;;;;;5071891;28;20040;-75
2021/10/02 07:40:28;;;;;;;18.20;15.95;;;17.70;90.60;;;;;;5071646;28;20049;-76
2021/10/02 07:42:56;;;;;;;18.13;16.13;;;17.60;90.00;;;;;;5071416;28;20036;-72
2021/10/02 07:45:26;;;;;;;21.58;16.70;;;17.70;90.10;;;;;;5071967;28;20381;-76
2021/10/02 07:47:55;;;;;;;16.98;15.18;;;17.70;90.00;;;;;;5072222;28;20043;-76
2021/10/02 07:50:23;;;;;;;18.55;14.02;;;17.80;89.60;;;;;;5071279;28;20045;-76
2021/10/02 07:52:55;;;;;;;18.75;14.07;;;17.70;89.20;;;;;;5071471;28;20061;-76
2021/10/02 07:55:24;;;;;;;16.05;14.13;;;17.80;89.40;;;;;;5071407;28;20044;-76
2021/10/02 07:57:50;;;;;;;15.77;12.07;;;17.80;89.70;;;;;;5071458;28;20037;-76
2021/10/02 08:00:18;;;;;;;15.88;13.02;;;17.80;88.00;;;;;;5072109;28;20025;-76
2021/10/02 08:02:52;;;;;;;16.85;13.73;;;17.90;88.30;;;;;;5071379;28;20044;-76
2021/10/02 08:05:19;;;;;;;15.93;13.30;;;17.80;88.80;;;;;;5071415;28;20045;-76
2021/10/02 08:07:47;;;;;;;18.33;14.40;;;17.80;89.20;;;;;;5071545;28;20041;-76
2021/10/02 08:10:17;;;;;;;19.90;15.23;;;17.90;90.00;;;;;;5071540;28;20044;-76
2021/10/02 08:12:44;;;;;;;19.23;16.17;;;17.90;90.30;;;;;;5071433;28;20044;-75
2021/10/02 08:15:11;;;;;;;18.05;15.25;;;17.90;90.60;;;;;;5071866;28;20052;-75
2021/10/02 08:17:40;;;;;;;18.95;16.80;;;18.00;90.80;;;;;;5071195;28;20485;-74
2021/10/02 08:20:10;;;;;;;20.00;16.63;;;18.00;91.00;;;;;;5071095;28;20045;-75
2021/10/02 08:22:42;;;;;;;22.63;17.43;;;18.10;91.50;;;;;;5074903;28;20414;-75
2021/10/02 08:25:10;;;;;;;22.73;18.20;;;18.20;91.40;;;;;;5075255;28;20033;-75
2021/10/02 08:27:37;;;;;;;23.67;18.55;;;18.30;91.50;;;;;;5075339;28;20452;-75
2021/10/02 08:30:06;;;;;;;24.00;18.30;;;18.30;91.50;;;;;;5074671;28;20491;-75
2021/10/02 08:32:34;;;;;;;22.85;19.83;;;18.40;91.40;;;;;;5075699;28;20055;-75
2021/10/02 08:35:00;;;;;;;21.08;18.70;;;18.40;91.10;;;;;;5074982;28;20045;-74
2021/10/02 08:37:27;;;;;;;24.38;21.73;;;18.60;91.10;;;;;;5074555;28;20036;-75
2021/10/02 08:39:53;;;;;;;28.17;22.02;;;18.60;90.30;;;;;;5074837;28;20044;-75
2021/10/02 08:42:21;;;;;;;27.90;22.60;;;18.60;90.20;;;;;;5074822;28;20047;-75
2021/10/02 08:44:52;;;;;;;33.00;24.55;;;18.70;89.90;;;;;;5074287;28;20044;-76
2021/10/02 08:47:22;;;;;;;26.67;23.42;;;18.70;89.30;;;;;;5074606;28;20139;-77
2021/10/02 08:49:50;;;;;;;;;;;18.80;88.90;;;;;;5075048;28;20055;-77
2021/10/02 08:52:19;;;;;;;25.30;21.67;;;18.90;87.40;;;;;;5073933;28;19915;-76
2021/10/02 08:54:49;;;;;;;24.70;21.02;;;18.90;87.20;;;;;;5074529;28;20396;-76
2021/10/02 08:57:22;;;;;;;23.15;19.25;;;18.90;85.70;;;;;;5074123;28;20040;-74
2021/10/02 08:59:50;;;;;;;21.13;18.80;;;19.00;86.10;;;;;;5074720;28;20040;-76
2021/10/02 09:02:18;;;;;;;25.75;18.73;;;19.10;85.90;;;;;;5074912;28;20500;-76
2021/10/02 09:04:45;;;;;;;21.52;17.52;;;19.10;83.90;;;;;;5074350;28;20392;-77
2021/10/02 09:07:15;;;;;;;24.42;17.98;;;19.20;82.90;;;;;;5074249;28;20052;-76
2021/10/02 09:09:44;;;;;;;19.30;17.23;;;19.30;83.20;;;;;;5074339;28;20483;-75
2021/10/02 09:12:11;;;;;;;23.08;19.10;;;19.30;82.90;;;;;;5074248;28;20495;-76
2021/10/02 09:14:37;;;;;;;23.95;19.02;;;19.40;82.10;;;;;;5074073;28;20045;-76
2021/10/02 09:17:04;;;;;;;24.23;19.65;;;19.50;81.00;;;;;;5074464;28;20534;-75
2021/10/02 09:19:33;;;;;;;24.08;21.67;;;19.50;80.20;;;;;;5074107;28;20051;-75
2021/10/02 09:22:06;;;;;;;23.98;19.60;;;19.50;80.70;;;;;;5073793;28;20044;-77
2021/10/02 09:24:35;;;;;;;24.27;19.67;;;19.50;81.00;;;;;;5073929;28;20048;-75
2021/10/02 09:27:02;;;;;;;27.25;22.02;;;19.60;80.20;;;;;;5071514;28;20237;-76
2021/10/02 09:29:43;;;;;;;27.27;22.75;;;19.60;80.30;;;;;;5066901;28;20048;-76
2021/10/02 09:32:14;;;;;;;26.42;22.25;;;19.60;80.00;;;;;;5068522;28;20040;-76
2021/10/02 09:35:11;;;;;;;30.73;24.98;;;19.70;80.00;;;;;;5064777;28;20404;-75
2021/10/02 09:37:40;;;;;;;25.63;22.75;;;19.70;80.00;;;;;;5068059;28;20037;-77
2021/10/02 09:40:10;;;;;;;30.75;23.83;;;19.70;79.70;;;;;;5062300;28;20040;-77
2021/10/02 09:42:43;;;;;;;29.60;22.13;;;19.70;79.80;;;;;;5062594;28;20037;-77
2021/10/02 09:45:12;;;;;;;26.52;23.00;;;19.80;79.80;;;;;;5056671;28;20291;-75
2021/10/02 09:47:40;;;;;;;33.15;27.55;;;19.80;79.90;;;;;;5067958;28;20392;-76
2021/10/02 09:50:16;;;;;;;31.92;28.52;;;19.90;81.10;;;;;;5067879;28;20400;-76
2021/10/02 09:52:45;;;;;;;29.95;26.55;;;19.90;81.00;;;;;;5071013;28;20059;-76
2021/10/02 09:55:22;;;;;;;30.75;25.95;;;19.90;80.90;;;;;;5068736;28;20052;-76
2021/10/02 09:57:52;;;;;;;29.20;25.80;;;19.90;80.90;;;;;;5069789;28;20029;-76
2021/10/02 10:00:25;;;;;;;30.08;26.88;;;20.00;81.30;;;;;;5064593;28;20045;-77
2021/10/02 10:02:53;;;;;;;29.10;25.85;;;20.10;81.20;;;;;;5070826;28;20044;-77
2021/10/02 10:05:19;;;;;;;31.25;26.98;;;20.20;80.90;;;;;;5059536;28;20040;-77
2021/10/02 10:07:55;;;;;;;32.40;26.20;;;20.20;79.50;;;;;;5070478;28;20039;-76
2021/10/02 10:10:22;;;;;;;31.80;27.08;;;20.10;79.70;;;;;;5065503;28;20048;-76
2021/10/02 10:12:49;;;;;;;29.98;25.23;;;20.10;79.00;;;;;;5066727;28;20637;-75
2021/10/02 10:15:39;;;;;;;25.65;23.00;;;20.10;78.30;;;;;;5067023;28;20052;-76
2021/10/02 10:18:08;;;;;;;26.02;23.23;;;20.20;77.10;;;;;;5068918;28;20033;-74
2021/10/02 10:20:43;;;;;;;29.08;25.55;;;20.20;77.30;;;;;;5066092;28;20040;-75
2021/10/02 10:23:10;;;;;;;28.85;24.10;;;20.30;76.70;;;;;;5069000;28;20064;-75
2021/10/02 10:25:53;;;;;;;23.83;21.30;;;20.40;76.90;;;;;;5072480;28;20036;-76
2021/10/02 10:28:22;;;;;;;25.33;21.38;;;20.50;74.20;;;;;;5066164;28;20059;-76
2021/10/02 10:30:49;;;;;;;25.88;21.80;;;20.50;74.50;;;;;;5070493;28;20055;-77
2021/10/02 10:33:17;;;;;;;26.70;22.30;;;20.50;76.00;;;;;;5068485;28;20040;-76
2021/10/02 10:35:50;;;;;;;27.00;22.30;;;20.50;75.50;;;;;;5069377;28;20059;-76
2021/10/02 10:38:19;;;;;;;26.40;23.75;;;20.50;74.30;;;;;;5065643;28;20480;-76
2021/10/02 10:40:47;;;;;;;25.33;22.50;;;20.50;74.70;;;;;;5072362;28;20041;-77
2021/10/02 10:43:14;;;;;;;24.15;21.63;;;20.50;75.60;;;;;;5063154;28;20049;-77
2021/10/02 10:45:41;;;;;;;27.15;21.98;;;20.50;75.80;;;;;;5058634;28;20414;-77
2021/10/02 10:48:08;;;;;;;25.83;23.05;;;20.60;75.20;;;;;;5060998;28;20488;-73
2021/10/02 10:50:38;;;;;;;26.15;23.25;;;20.60;74.50;;;;;;5062401;28;20044;-76
2021/10/02 10:53:05;;;;;;;24.70;22.02;;;20.70;74.00;;;;;;5056588;28;20059;-76
2021/10/02 10:55:32;;;;;;;25.08;21.05;;;20.80;74.00;;;;;;5061695;28;20052;-76
2021/10/02 10:58:02;;;;;;;25.45;21.50;;;20.90;73.50;;;;;;5069694;28;20048;-76
2021/10/02 11:00:31;;;;;;;24.13;21.52;;;20.90;73.60;;;;;;5063446;28;20045;-76
2021/10/02 11:03:07;;;;;;;25.98;23.27;;;20.90;72.80;;;;;;5060381;28;20044;-75
2021/10/02 11:05:37;;;;;;;28.83;23.05;;;20.90;72.80;;;;;;5042202;28;20033;-72
2021/10/02 11:08:16;;;;;;;26.23;23.40;;;20.70;72.40;;;;;;5063419;28;20051;-76
2021/10/02 11:10:43;;;;;;;26.67;22.60;;;20.60;72.70;;;;;;5066211;28;20044;-76
2021/10/02 11:13:10;;;;;;;25.50;22.52;;;20.60;73.20;;;;;;5060621;28;20049;-71
2021/10/02 11:15:37;;;;;;;27.42;24.02;;;20.70;73.40;;;;;;5057101;28;20500;-77
2021/10/02 11:18:03;;;;;;;24.33;21.73;;;20.70;73.60;;;;;;5059810;28;20499;-76
2021/10/02 11:20:32;;;;;;;25.77;22.98;;;20.70;73.90;;;;;;5055152;28;20045;-76
2021/10/02 11:23:20;;;;;;;27.75;24.27;;;20.70;73.60;;;;;;5058285;28;20041;-76
2021/10/02 11:26:06;;;;;;;31.40;22.63;;;20.70;73.20;;;;;;5052048;28;20047;-76
2021/10/02 11:28:33;;;;;;;27.63;23.30;;;20.70;73.00;;;;;;5065842;28;20044;-76
2021/10/02 11:31:00;;;;;;;28.42;23.58;;;20.80;72.30;;;;;;5054252;28;20060;-75
2021/10/02 11:33:32;;;;;;;26.05;23.23;;;20.80;71.90;;;;;;5058966;28;20048;-75
2021/10/02 11:36:00;;;;;;;28.95;23.65;;;20.80;71.70;;;;;;5059137;28;20041;-75
2021/10/02 11:38:37;;;;;;;25.30;22.65;;;20.70;72.10;;;;;;5059903;28;20040;-75
2021/10/02 11:41:23;;;;;;;28.92;25.80;;;20.60;72.60;;;;;;5068566;28;20491;-76
2021/10/02 11:43:54;;;;;;;26.17;23.35;;;20.80;72.40;;;;;;5054019;28;20048;-75
2021/10/02 11:46:25;;;;;;;27.45;23.95;;;20.90;71.50;;;;;;5062769;28;20040;-75
2021/10/02 11:48:52;;;;;;;;;;;21.00;71.10;;;;;;5060412;28;20044;-74
2021/10/02 11:51:29;;;;;;;27.70;23.13;;;21.10;71.30;;;;;;5061132;28;19908;-73
2021/10/02 11:54:14;;;;;;;30.08;23.60;;;21.20;70.20;;;;;;5062789;28;20107;-75
2021/10/02 11:56:42;;;;;;;27.70;24.63;;;21.20;69.80;;;;;;5068365;28;20040;-75
2021/10/02 11:59:09;;;;;;;24.40;21.90;;;21.30;68.80;;;;;;5069994;28;20032;-75
2021/10/02 12:01:43;;;;;;;25.88;23.10;;;21.20;69.20;;;;;;5067117;28;20040;-75
2021/10/02 12:04:13;;;;;;;25.20;21.20;;;21.20;69.40;;;;;;5068813;28;20111;-75
2021/10/02 12:06:45;;;;;;;27.15;24.25;;;21.20;69.30;;;;;;5069102;28;20033;-75
2021/10/02 12:09:14;;;;;;;25.90;23.10;;;21.10;69.00;;;;;;5068390;28;20036;-75
2021/10/02 12:11:46;;;;;;;26.50;23.35;;;21.10;68.80;;;;;;5073540;28;20067;-75
2021/10/02 12:14:20;;;;;;;23.90;21.42;;;21.00;68.90;;;;;;5069623;28;20048;-64
2021/10/02 12:17:13;;;;;;;27.42;23.70;;;21.10;69.90;;;;;;5057412;28;20052;-75
2021/10/02 12:19:40;;;;;;;25.42;22.83;;;21.10;70.70;;;;;;5054894;28;20048;-76
2021/10/02 12:22:07;;;;;;;26.40;23.67;;;21.00;69.80;;;;;;5063456;28;20048;-73
2021/10/02 12:24:39;;;;;;;23.98;21.42;;;21.00;69.00;;;;;;5074475;28;20507;-75
2021/10/02 12:27:10;;;;;;;24.45;20.90;;;21.00;69.60;;;;;;5075189;28;20048;-76
2021/10/02 12:29:39;;;;;;;25.70;22.92;;;21.00;69.30;;;;;;5075365;28;20059;-74
2021/10/02 12:32:08;;;;;;;27.35;24.60;;;21.00;69.70;;;;;;5074770;28;20051;-75
2021/10/02 12:34:53;;;;;;;25.85;23.02;;;20.90;69.60;;;;;;5075192;28;20040;-75
2021/10/02 12:37:31;;;;;;;25.80;21.98;;;20.90;69.60;;;;;;5075091;28;20052;-74
2021/10/02 12:40:05;;;;;;;25.25;22.58;;;21.00;69.70;;;;;;5075480;28;20068;-75
2021/10/02 12:42:34;;;;;;;25.27;21.73;;;21.10;69.50;;;;;;5074997;28;20041;-75
2021/10/02 12:45:11;;;;;;;25.92;23.27;;;21.10;70.30;;;;;;5056823;28;20036;-75
2021/10/02 12:47:38;;;;;;;25.40;22.63;;;21.00;68.60;;;;;;5074806;28;20484;-75
2021/10/02 12:50:10;;;;;;;29.30;22.83;;;21.00;68.90;;;;;;5074519;28;20422;-76
2021/10/02 12:52:37;;;;;;;24.88;22.05;;;21.00;68.70;;;;;;5074826;28;20040;-75
2021/10/02 12:55:10;;;;;;;25.48;22.15;;;21.10;69.20;;;;;;5074384;28;20051;-75
2021/10/02 12:57:37;;;;;;;31.63;22.33;;;21.20;68.50;;;;;;5074529;28;20403;-75
2021/10/02 13:00:08;;;;;;;24.63;20.67;;;21.20;67.90;;;;;;5074587;28;20052;-76
2021/10/02 13:02:50;;;;;;;23.90;21.40;;;21.30;68.20;;;;;;5074378;28;20063;-76
2021/10/02 13:05:19;;;;;;;22.05;19.38;;;21.30;67.90;;;;;;5074724;28;20052;-74
2021/10/02 13:07:48;;;;;;;24.58;21.63;;;21.30;68.20;;;;;;5073986;28;20048;-76
2021/10/02 13:10:31;;;;;;;24.70;22.13;;;21.30;68.50;;;;;;5074555;28;20044;-76
2021/10/02 13:12:58;;;;;;;24.65;20.50;;;21.30;67.40;;;;;;5074279;28;20037;-76
2021/10/02 13:15:32;;;;;;;22.02;19.73;;;21.20;66.90;;;;;;5074207;28;20052;-75
2021/10/02 13:18:14;;;;;;;24.50;20.83;;;21.20;67.70;;;;;;5074031;28;20040;-76
2021/10/02 13:20:40;;;;;;;24.85;22.25;;;21.20;67.90;;;;;;5056364;28;20040;-76
2021/10/02 13:23:16;;;;;;;26.23;23.38;;;21.20;67.10;;;;;;5073935;28;20040;-76
2021/10/02 13:25:43;;;;;;;22.42;20.08;;;21.20;67.30;;;;;;5074354;28;20044;-76
2021/10/02 13:28:27;;;;;;;22.40;19.83;;;21.20;67.90;;;;;;5073957;28;20037;-77
2021/10/02 13:30:56;;;;;;;22.30;18.95;;;21.30;68.30;;;;;;5074089;28;20051;-76
2021/10/02 13:33:24;;;;;;;23.73;21.23;;;21.30;68.60;;;;;;5074651;28;20025;-75